Time;durP1;ratioP1;P1;durP2;ratioP2;P2;SDS_P1;SDS_P2;PMS_P1;PMS_P2;Temp;Humidity;BMP_temperature;BMP_pressure;BME280_temperature;BME280_humidity;BME280_pressure;Samples;Min_cycle;Max_cycle;Signal;HPM_P1;HPM_P2
2023/02/28 00:01:40;;;;;;;;;;;18.30;28.90;;;;;;8364090;28;20020;-45
2023/02/28 00:05:41;;;;;;;;;;;18.20;28.90;;;;;;8363739;28;20328;-44
2023/02/28 00:09:41;;;;;;;;;;;18.20;29.00;;;;;;8363200;28;19923;-43
2023/02/28 00:13:46;;;;;;;;;;;18.20;28.90;;;;;;8363219;28;19924;-45
2023/02/28 00:17:46;;;;;;;;;;;18.10;28.90;;;;;;8363231;28;19929;-44
2023/02/28 00:21:46;;;;;;;;;;;18.20;28.90;;;;;;8362818;28;19917;-45
2023/02/28 00:25:47;;;;;;;;;;;18.10;29.00;;;;;;8363478;28;19913;-45
2023/02/28 00:29:47;;;;;;;;;;;18.10;29.00;;;;;;8363140;28;19971;-44
2023/02/28 00:33:48;;;;;;;;;;;18.10;29.00;;;;;;8361636;28;19917;-44
2023/02/28 00:37:49;;;;;;;;;;;18.00;29.00;;;;;;8362786;28;19924;-45
2023/02/28 00:41:49;;;;;;;;;;;18.00;29.00;;;;;;8363016;28;19940;-45
2023/02/28 00:45:50;;;;;;;;;;;18.00;29.00;;;;;;8362355;28;19913;-43
2023/02/28 00:49:50;;;;;;;;;;;18.00;29.00;;;;;;8362921;28;20434;-44
2023/02/28 00:53:51;;;;;;;;;;;18.00;29.00;;;;;;8362599;28;19921;-44
2023/02/28 00:57:51;;;;;;;;;;;18.00;29.00;;;;;;8362052;28;19931;-44
2023/02/28 01:01:52;;;;;;;;;;;17.90;29.00;;;;;;8362534;28;20370;-45
2023/02/28 01:05:55;;;;;;;;;;;17.90;29.10;;;;;;8362686;28;19952;-44
2023/02/28 01:09:56;;;;;;;;;;;17.90;29.10;;;;;;8362067;28;20385;-45
2023/02/28 01:13:56;;;;;;;;;;;17.90;29.10;;;;;;8362638;28;19963;-44
2023/02/28 01:17:57;;;;;;;;;;;17.90;29.10;;;;;;8362164;28;20006;-45
2023/02/28 01:22:00;;;;;;;;;;;17.80;29.00;;;;;;8361886;28;19917;-44
2023/02/28 01:26:07;;;;;;;;;;;17.80;29.10;;;;;;8362739;28;20289;-44
2023/02/28 01:30:08;;;;;;;;;;;17.80;29.10;;;;;;8362361;28;20019;-45
2023/02/28 01:34:09;;;;;;;;;;;17.80;29.10;;;;;;8361603;28;19948;-45
2023/02/28 01:38:09;;;;;;;;;;;17.80;29.10;;;;;;8361910;28;19931;-45
2023/02/28 01:42:10;;;;;;;;;;;17.80;29.10;;;;;;8362745;28;20012;-44
2023/02/28 01:46:11;;;;;;;;;;;17.80;29.10;;;;;;8367792;28;19917;-45
2023/02/28 01:50:14;;;;;;;;;;;17.70;29.10;;;;;;8367793;28;19917;-44
2023/02/28 01:54:16;;;;;;;;;;;17.70;29.10;;;;;;8367673;28;20046;-44
2023/02/28 01:58:16;;;;;;;;;;;17.70;29.10;;;;;;8367097;28;19925;-45
2023/02/28 02:02:18;;;;;;;;;;;17.70;29.10;;;;;;8367847;28;19923;-44
2023/02/28 02:06:19;;;;;;;;;;;17.70;29.10;;;;;;8366633;28;20293;-45
2023/02/28 02:10:21;;;;;;;;;;;17.60;29.10;;;;;;8366960;28;19942;-44
2023/02/28 02:14:31;;;;;;;;;;;17.60;29.10;;;;;;8367523;28;19928;-44
2023/02/28 02:18:46;;;;;;;;;;;17.60;29.20;;;;;;8366970;28;19924;-45
2023/02/28 02:22:49;;;;;;;;;;;17.60;29.20;;;;;;8366708;28;20004;-45
2023/02/28 02:27:03;;;;;;;;;;;17.60;29.20;;;;;;8367128;28;19913;-44
2023/02/28 02:31:03;;;;;;;;;;;17.60;29.10;;;;;;8366596;28;20424;-45
2023/02/28 02:35:13;;;;;;;;;;;17.50;29.10;;;;;;8367934;28;19921;-44
2023/02/28 02:39:17;;;;;;;;;;;17.50;29.10;;;;;;8366609;28;19963;-45
2023/02/28 02:43:35;;;;;;;;;;;17.50;29.10;;;;;;8365874;28;19924;-44
2023/02/28 02:47:36;;;;;;;;;;;17.50;29.20;;;;;;8366168;28;19923;-44
2023/02/28 02:51:37;;;;;;;;;;;17.50;29.20;;;;;;8366496;28;19913;-44
2023/02/28 02:55:41;;;;;;;;;;;17.40;29.10;;;;;;8365097;28;19963;-44
2023/02/28 02:59:42;;;;;;;;;;;17.40;29.10;;;;;;8366256;28;20369;-44
2023/02/28 03:03:43;;;;;;;;;;;17.40;29.10;;;;;;8365261;28;19921;-45
2023/02/28 03:07:43;;;;;;;;;;;17.40;29.10;;;;;;8365603;28;19924;-45
2023/02/28 03:11:43;;;;;;;;;;;17.40;29.10;;;;;;8365650;28;20278;-45
2023/02/28 03:15:54;;;;;;;;;;;17.40;29.20;;;;;;8364848;28;19925;-43
2023/02/28 03:20:02;;;;;;;;;;;17.30;29.10;;;;;;8365287;28;19925;-45
2023/02/28 03:24:11;;;;;;;;;;;17.30;29.10;;;;;;8365251;28;19939;-44
2023/02/28 03:28:16;;;;;;;;;;;17.30;29.10;;;;;;8364490;28;19917;-44
2023/02/28 03:32:25;;;;;;;;;;;17.30;29.10;;;;;;8365257;28;20324;-44
2023/02/28 03:36:28;;;;;;;;;;;17.30;29.10;;;;;;8364940;28;19958;-45
2023/02/28 03:40:31;;;;;;;;;;;17.30;29.10;;;;;;8363987;28;19947;-45
2023/02/28 03:44:39;;;;;;;;;;;17.30;29.20;;;;;;8364719;28;19928;-44
2023/02/28 03:48:45;;;;;;;;;;;17.20;29.10;;;;;;8364113;28;19991;-43
2023/02/28 03:52:50;;;;;;;;;;;17.20;29.10;;;;;;8364131;28;19917;-44
2023/02/28 03:56:54;;;;;;;;;;;17.20;29.10;;;;;;8364435;28;19939;-44
2023/02/28 04:00:56;;;;;;;;;;;17.20;29.20;;;;;;8363942;28;19964;-44
2023/02/28 04:04:57;;;;;;;;;;;17.20;29.10;;;;;;8363668;28;19924;-44
2023/02/28 04:08:57;;;;;;;;;;;17.20;29.20;;;;;;8364284;28;19917;-45
2023/02/28 04:12:58;;;;;;;;;;;17.20;29.10;;;;;;8363124;28;19917;-45
2023/02/28 04:16:58;;;;;;;;;;;17.20;29.10;;;;;;8363735;28;19920;-44
2023/02/28 04:20:59;;;;;;;;;;;17.20;29.10;;;;;;8363448;28;20250;-44
2023/02/28 04:25:00;;;;;;;;;;;17.20;29.20;;;;;;8362825;28;19917;-44
2023/02/28 04:29:01;;;;;;;;;;;17.10;29.10;;;;;;8363339;28;19959;-44
2023/02/28 04:33:01;;;;;;;;;;;17.10;29.10;;;;;;8363231;28;19923;-45
2023/02/28 04:37:02;;;;;;;;;;;17.20;29.10;;;;;;8363014;28;19924;-45
2023/02/28 04:41:03;;;;;;;;;;;17.10;29.10;;;;;;8363287;28;19955;-43
2023/02/28 04:45:04;;;;;;;;;;;17.10;29.10;;;;;;8363182;28;19921;-45
2023/02/28 04:49:05;;;;;;;;;;;17.10;29.10;;;;;;8362490;28;19924;-45
2023/02/28 04:53:05;;;;;;;;;;;17.10;29.10;;;;;;8363035;28;19968;-45
2023/02/28 04:57:05;;;;;;;;;;;17.10;29.10;;;;;;8363050;28;20409;-43
2023/02/28 05:01:15;;;;;;;;;;;17.10;29.10;;;;;;8362868;28;19929;-45
2023/02/28 05:05:17;;;;;;;;;;;17.00;29.10;;;;;;8362029;28;19924;-43
2023/02/28 05:09:18;;;;;;;;;;;17.00;29.10;;;;;;8361920;28;19916;-44
2023/02/28 05:13:18;;;;;;;;;;;17.10;29.60;;;;;;8362183;28;19913;-44
2023/02/28 05:17:20;;;;;;;;;;;17.20;29.20;;;;;;8363043;28;21296;-45
2023/02/28 05:21:29;;;;;;;;;;;17.30;29.10;;;;;;8368876;28;20483;-44
2023/02/28 05:25:29;;;;;;;;;;;17.40;29.00;;;;;;8368357;28;19921;-44
2023/02/28 05:29:29;;;;;;;;;;;17.60;29.00;;;;;;8369024;28;20281;-44
2023/02/28 05:33:30;;;;;;;;;;;17.70;28.90;;;;;;8368652;28;19927;-45
2023/02/28 05:37:30;;;;;;;;;;;17.80;28.90;;;;;;8368218;28;20002;-44
2023/02/28 05:41:31;;;;;;;;;;;17.90;28.80;;;;;;8368289;28;20293;-44
2023/02/28 05:45:31;;;;;;;;;;;18.00;28.80;;;;;;8368259;28;19944;-44
2023/02/28 05:49:32;;;;;;;;;;;18.00;28.70;;;;;;8367637;28;19920;-44
2023/02/28 05:53:32;;;;;;;;;;;18.10;28.70;;;;;;8367947;28;19955;-46
2023/02/28 05:57:32;;;;;;;;;;;18.20;28.80;;;;;;8368003;28;20271;-45
2023/02/28 06:01:34;;;;;;;;;;;18.20;28.80;;;;;;8367179;28;19921;-46
2023/02/28 06:05:35;;;;;;;;;;;18.30;28.70;;;;;;8367614;28;19917;-45
2023/02/28 06:09:36;;;;;;;;;;;18.30;28.70;;;;;;8368196;28;19938;-45
2023/02/28 06:13:36;;;;;;;;;;;18.40;28.70;;;;;;8366981;28;19923;-43
2023/02/28 06:17:37;;;;;;;;;;;18.40;28.70;;;;;;8367455;28;19917;-44
2023/02/28 06:21:37;;;;;;;;;;;18.40;28.70;;;;;;8367094;28;19921;-44
2023/02/28 06:25:37;;;;;;;;;;;18.50;28.70;;;;;;8366911;28;19924;-43
2023/02/28 06:29:41;;;;;;;;;;;18.50;28.70;;;;;;8365479;28;19996;-44
2023/02/28 06:33:42;;;;;;;;;;;18.60;28.70;;;;;;8366172;28;19925;-43
2023/02/28 06:37:43;;;;;;;;;;;18.60;28.60;;;;;;8366853;28;19925;-45
2023/02/28 06:41:45;;;;;;;;;;;18.60;28.60;;;;;;8366470;28;19963;-44
2023/02/28 06:45:46;;;;;;;;;;;18.70;28.60;;;;;;8365992;28;19920;-44
2023/02/28 06:49:46;;;;;;;;;;;18.70;28.60;;;;;;8366216;28;20255;-44
2023/02/28 06:53:47;;;;;;;;;;;18.70;28.60;;;;;;8366099;28;19916;-44
2023/02/28 06:57:47;;;;;;;;;;;18.70;28.60;;;;;;8365637;28;19921;-44
2023/02/28 07:01:48;;;;;;;;;;;18.80;28.60;;;;;;8366389;28;19927;-44
2023/02/28 07:05:48;;;;;;;;;;;18.80;28.60;;;;;;8365777;28;20034;-43
2023/02/28 07:09:48;;;;;;;;;;;18.80;28.60;;;;;;8365100;28;19920;-45
2023/02/28 07:13:50;;;;;;;;;;;18.90;28.60;;;;;;8365374;28;19912;-44
2023/02/28 07:17:51;;;;;;;;;;;18.90;28.60;;;;;;8365554;28;19925;-44
2023/02/28 07:21:51;;;;;;;;;;;18.90;28.50;;;;;;8364406;28;19977;-45
2023/02/28 07:25:52;;;;;;;;;;;18.90;28.50;;;;;;8364946;28;19917;-43
2023/02/28 07:29:52;;;;;;;;;;;18.90;28.50;;;;;;8364918;28;20365;-44
2023/02/28 07:33:53;;;;;;;;;;;19.00;28.50;;;;;;8364162;28;19921;-45
2023/02/28 07:37:54;;;;;;;;;;;19.00;28.40;;;;;;8365171;28;19971;-44
2023/02/28 07:41:54;;;;;;;;;;;19.00;28.40;;;;;;8364200;28;20382;-46
2023/02/28 07:45:55;;;;;;;;;;;19.10;28.50;;;;;;8363905;28;19935;-45
2023/02/28 07:49:55;;;;;;;;;;;19.10;28.50;;;;;;8364631;28;20385;-44
2023/02/28 07:53:56;;;;;;;;;;;19.10;28.50;;;;;;8364183;28;20294;-45
2023/02/28 07:57:57;;;;;;;;;;;19.10;28.50;;;;;;8363714;28;19921;-44
2023/02/28 08:01:58;;;;;;;;;;;19.10;28.50;;;;;;8363887;28;19928;-46
2023/02/28 08:05:58;;;;;;;;;;;19.10;28.50;;;;;;8354179;28;19920;-44
2023/02/28 08:09:59;;;;;;;;;;;19.10;28.50;;;;;;8363261;28;20293;-44
2023/02/28 08:13:59;;;;;;;;;;;19.10;28.40;;;;;;8363515;28;19920;-44
2023/02/28 08:18:00;;;;;;;;;;;19.10;28.30;;;;;;8363379;28;19925;-44
2023/02/28 08:22:00;;;;;;;;;;;19.10;28.30;;;;;;8362776;28;19916;-44
2023/02/28 08:26:00;;;;;;;;;;;19.10;28.30;;;;;;8363404;28;20362;-44
2023/02/28 08:30:02;;;;;;;;;;;19.10;28.30;;;;;;8363176;28;19913;-44
2023/02/28 08:34:06;;;;;;;;;;;19.10;28.30;;;;;;8362554;28;19924;-43
2023/02/28 08:38:07;;;;;;;;;;;19.00;28.40;;;;;;8363394;28;19994;-44
2023/02/28 08:42:08;;;;;;;;;;;18.90;28.40;;;;;;8363019;28;19970;-44
2023/02/28 08:46:10;;;;;;;;;;;18.90;28.40;;;;;;8362594;28;19917;-44
2023/02/28 08:50:13;;;;;;;;;;;18.90;28.40;;;;;;8362890;28;19920;-44
2023/02/28 08:54:15;;;;;;;;;;;18.80;28.40;;;;;;8367323;28;19940;-44
2023/02/28 08:58:16;;;;;;;;;;;18.80;28.40;;;;;;8369422;28;20442;-44
2023/02/28 09:02:16;;;;;;;;;;;18.70;28.30;;;;;;8369464;28;19917;-47
2023/02/28 09:06:18;;;;;;;;;;;18.70;28.40;;;;;;8369307;28;20015;-44
2023/02/28 09:10:18;;;;;;;;;;;18.70;28.40;;;;;;8368638;28;20374;-45
2023/02/28 09:14:19;;;;;;;;;;;18.70;28.50;;;;;;8369285;28;19999;-45
2023/02/28 09:18:20;;;;;;;;;;;18.60;28.50;;;;;;8369167;28;19979;-45
2023/02/28 09:22:21;;;;;;;;;;;18.60;28.50;;;;;;8368410;28;19920;-45
2023/02/28 09:26:23;;;;;;;;;;;18.60;28.50;;;;;;8368864;28;19917;-45
2023/02/28 09:30:23;;;;;;;;;;;18.50;28.50;;;;;;8368799;28;20007;-46
2023/02/28 09:34:24;;;;;;;;;;;18.50;28.50;;;;;;8368098;28;19913;-43
2023/02/28 09:38:25;;;;;;;;;;;18.40;28.50;;;;;;8367928;28;19925;-44
2023/02/28 09:42:31;;;;;;;;;;;18.40;28.50;;;;;;8368125;28;19969;-44
2023/02/28 09:46:33;;;;;;;;;;;18.40;28.50;;;;;;8367359;28;19956;-44
2023/02/28 09:50:41;;;;;;;;;;;18.40;28.60;;;;;;8368228;28;19917;-44
2023/02/28 09:54:42;;;;;;;;;;;18.30;28.60;;;;;;8367059;28;19998;-45
2023/02/28 09:58:52;;;;;;;;;;;18.30;28.60;;;;;;8367639;28;19928;-44
2023/02/28 10:03:23;;;;;;;;;;;18.30;28.50;;;;;;8366944;28;19944;-44
2023/02/28 10:07:39;;;;;;;;;;;18.30;28.60;;;;;;8280604;28;19917;-44
2023/02/28 10:11:41;;;;;;;;;;;18.20;28.60;;;;;;8350569;28;19917;-46
2023/02/28 10:15:42;;;;;;;;;;;18.20;28.60;;;;;;8366892;28;20293;-44
2023/02/28 10:19:42;;;;;;;;;;;18.10;28.60;;;;;;8367328;28;20382;-44
2023/02/28 10:23:44;;;;;;;;;;;18.10;28.70;;;;;;8367112;28;19966;-44
2023/02/28 10:27:45;;;;;;;;;;;18.10;28.70;;;;;;8366676;28;19921;-44
2023/02/28 10:31:45;;;;;;;;;;;18.10;28.70;;;;;;8366708;28;19921;-44
2023/02/28 10:35:46;;;;;;;;;;;18.10;28.70;;;;;;8366575;28;20336;-45
2023/02/28 10:39:46;;;;;;;;;;;18.10;28.70;;;;;;8366138;28;19921;-44
2023/02/28 10:43:48;;;;;;;;;;;18.10;28.80;;;;;;8366385;28;20004;-43
2023/02/28 10:47:51;;;;;;;;;;;18.10;28.80;;;;;;8366070;28;19962;-44
2023/02/28 10:51:53;;;;;;;;;;;18.00;28.70;;;;;;8365670;28;19916;-44
2023/02/28 10:56:01;;;;;;;;;;;18.00;28.70;;;;;;8366135;28;19920;-45
2023/02/28 11:00:15;;;;;;;;;;;18.00;28.70;;;;;;8366490;28;19925;-44
2023/02/28 11:04:32;;;;;;;;;;;18.00;28.40;;;;;;8332444;28;19917;-44
2023/02/28 11:08:32;;;;;;;;;;;17.90;28.70;;;;;;8361081;28;20137;-45
2023/02/28 11:12:37;;;;;;;;;;;18.00;28.80;;;;;;8362316;28;20012;-44
2023/02/28 11:16:38;;;;;;;;;;;17.90;28.80;;;;;;8364121;28;19917;-44
2023/02/28 11:20:39;;;;;;;;;;;17.90;28.70;;;;;;8365109;28;19927;-43
2023/02/28 11:24:41;;;;;;;;;;;17.90;28.80;;;;;;8364479;28;20290;-42
2023/02/28 11:28:42;;;;;;;;;;;17.90;28.80;;;;;;8364771;28;20005;-43
2023/02/28 11:32:48;;;;;;;;;;;17.90;28.80;;;;;;8364626;28;19920;-44
2023/02/28 11:36:48;;;;;;;;;;;17.80;28.80;;;;;;8364068;28;19920;-45
2023/02/28 11:40:55;;;;;;;;;;;17.90;28.80;;;;;;8364527;28;20374;-45
2023/02/28 11:45:05;;;;;;;;;;;17.90;28.80;;;;;;8364832;28;19940;-44
2023/02/28 11:49:14;;;;;;;;;;;17.80;28.80;;;;;;8363484;28;20007;-45
2023/02/28 11:53:47;;;;;;;;;;;17.80;28.80;;;;;;8364387;28;20390;-47
2023/02/28 11:58:07;;;;;;;;;;;17.80;28.80;;;;;;8319160;28;19921;-45
2023/02/28 12:02:28;;;;;;;;;;;17.80;28.80;;;;;;8363949;28;20432;-44
2023/02/28 12:06:32;;;;;;;;;;;17.80;28.80;;;;;;8363670;28;19959;-44
2023/02/28 12:10:41;;;;;;;;;;;17.80;28.80;;;;;;8362774;28;19917;-45
2023/02/28 12:14:49;;;;;;;;;;;17.80;29.20;;;;;;8363712;28;19917;-45
2023/02/28 12:18:52;;;;;;;;;;;17.80;28.80;;;;;;8362625;28;19925;-45
2023/02/28 12:23:12;;;;;;;;;;;17.70;28.80;;;;;;8363085;28;19921;-44
2023/02/28 12:27:15;;;;;;;;;;;17.70;28.80;;;;;;8362897;28;19919;-43
2023/02/28 12:31:21;;;;;;;;;;;17.70;28.80;;;;;;8362165;28;19951;-43
2023/02/28 12:35:26;;;;;;;;;;;17.80;28.80;;;;;;8363387;28;19920;-44
2023/02/28 12:39:29;;;;;;;;;;;17.70;28.80;;;;;;8362711;28;19948;-44
2023/02/28 12:43:34;;;;;;;;;;;17.70;28.80;;;;;;8362265;28;19923;-45
2023/02/28 12:47:36;;;;;;;;;;;17.70;28.80;;;;;;8362689;28;19960;-44
2023/02/28 12:51:36;;;;;;;;;;;17.70;28.80;;;;;;8362582;28;19917;-44
2023/02/28 12:55:48;;;;;;;;;;;17.70;28.80;;;;;;8361913;28;20384;-44
2023/02/28 12:59:51;;;;;;;;;;;17.70;28.80;;;;;;8362910;28;19986;-44
2023/02/28 13:03:54;;;;;;;;;;;17.70;28.80;;;;;;8361753;28;19917;-44
2023/02/28 13:08:04;;;;;;;;;;;17.70;28.80;;;;;;8362614;28;19917;-44
2023/02/28 13:12:13;;;;;;;;;;;17.70;28.80;;;;;;8362298;28;19921;-44
2023/02/28 13:16:13;;;;;;;;;;;17.70;28.80;;;;;;8361663;28;19917;-44
2023/02/28 13:20:21;;;;;;;;;;;17.60;28.80;;;;;;8361980;28;19920;-44
2023/02/28 13:24:42;;;;;;;;;;;17.60;28.80;;;;;;8361751;28;19917;-44
2023/02/28 13:28:48;;;;;;;;;;;17.70;28.90;;;;;;8361737;28;20425;-44
2023/02/28 13:33:09;;;;;;;;;;;17.60;28.80;;;;;;8361887;28;19923;-42
2023/02/28 13:37:22;;;;;;;;;;;17.60;28.80;;;;;;8361232;28;19952;-45
2023/02/28 13:41:28;;;;;;;;;;;17.60;28.80;;;;;;8367386;28;19920;-45
2023/02/28 13:45:29;;;;;;;;;;;17.60;28.80;;;;;;8367931;28;19918;-45
2023/02/28 13:49:32;;;;;;;;;;;17.60;28.80;;;;;;8367275;28;19928;-45
2023/02/28 13:53:52;;;;;;;;;;;17.60;28.80;;;;;;8367897;28;20374;-46
2023/02/28 13:58:19;;;;;;;;;;;17.60;28.90;;;;;;8366269;28;20007;-45
2023/02/28 14:02:31;;;;;;;;;;;17.60;28.90;;;;;;8336868;28;19928;-44
2023/02/28 14:06:33;;;;;;;;;;;17.60;28.90;;;;;;8366541;28;19939;-47
2023/02/28 14:10:40;;;;;;;;;;;17.60;28.90;;;;;;8366824;28;19971;-45
2023/02/28 14:14:41;;;;;;;;;;;17.60;28.90;;;;;;8367145;28;20358;-45
2023/02/28 14:18:47;;;;;;;;;;;17.50;28.80;;;;;;8366172;28;19925;-45
2023/02/28 14:23:04;;;;;;;;;;;17.50;28.90;;;;;;8369990;28;19943;-45
2023/02/28 14:27:14;;;;;;;;;;;17.50;28.90;;;;;;8366967;28;19921;-43
2023/02/28 14:31:29;;;;;;;;;;;17.50;28.90;;;;;;8366195;28;19920;-44
2023/02/28 14:35:42;;;;;;;;;;;17.50;28.80;;;;;;8366767;28;20403;-46
2023/02/28 14:39:44;;;;;;;;;;;17.50;28.80;;;;;;8365822;28;20015;-44
2023/02/28 14:43:49;;;;;;;;;;;17.50;28.90;;;;;;8366356;28;20409;-44
2023/02/28 14:47:50;;;;;;;;;;;17.50;28.90;;;;;;8365568;28;19921;-43
2023/02/28 14:52:01;;;;;;;;;;;17.50;28.90;;;;;;8363923;28;19952;-44
2023/02/28 14:56:01;;;;;;;;;;;17.50;28.90;;;;;;8366508;28;19917;-44
2023/02/28 15:00:25;;;;;;;;;;;17.50;28.90;;;;;;8366066;28;19967;-43
2023/02/28 15:04:27;;;;;;;;;;;17.40;28.90;;;;;;8365025;28;19920;-44
2023/02/28 15:08:28;;;;;;;;;;;17.50;28.90;;;;;;8365522;28;20328;-44
2023/02/28 15:12:29;;;;;;;;;;;17.40;28.90;;;;;;8365391;28;19979;-45
2023/02/28 15:16:35;;;;;;;;;;;17.40;28.90;;;;;;8347313;28;19929;-45
2023/02/28 15:20:38;;;;;;;;;;;17.40;29.30;;;;;;8365069;28;19925;-45
2023/02/28 15:24:42;;;;;;;;;;;17.40;28.80;;;;;;8364931;28;19923;-45
2023/02/28 15:28:43;;;;;;;;;;;17.40;28.90;;;;;;8364929;28;19947;-45
2023/02/28 15:32:43;;;;;;;;;;;17.40;28.90;;;;;;8364615;28;19921;-44
2023/02/28 15:36:44;;;;;;;;;;;17.40;28.90;;;;;;8364093;28;19920;-44
2023/02/28 15:40:53;;;;;;;;;;;17.40;28.90;;;;;;8364215;28;20297;-45
2023/02/28 15:44:53;;;;;;;;;;;17.40;28.90;;;;;;8364110;28;20013;-44
2023/02/28 15:48:55;;;;;;;;;;;17.40;28.90;;;;;;8363426;28;19971;-45
2023/02/28 15:52:56;;;;;;;;;;;17.40;28.90;;;;;;8364017;28;20396;-44
2023/02/28 15:57:03;;;;;;;;;;;17.40;29.00;;;;;;8363679;28;19913;-45
2023/02/28 16:01:06;;;;;;;;;;;17.40;28.90;;;;;;8363217;28;19994;-45
2023/02/28 16:05:07;;;;;;;;;;;17.40;28.90;;;;;;8363480;28;19920;-46
2023/02/28 16:09:12;;;;;;;;;;;17.40;28.90;;;;;;8363034;28;20022;-45
2023/02/28 16:13:15;;;;;;;;;;;17.40;28.90;;;;;;8362522;28;19917;-45
2023/02/28 16:17:26;;;;;;;;;;;17.50;28.90;;;;;;8345157;28;20003;-44
2023/02/28 16:21:26;;;;;;;;;;;17.60;28.90;;;;;;8363189;28;20344;-44
2023/02/28 16:25:32;;;;;;;;;;;17.70;28.80;;;;;;8362443;28;19923;-44
2023/02/28 16:29:36;;;;;;;;;;;17.90;28.80;;;;;;8363060;28;19936;-44
2023/02/28 16:33:37;;;;;;;;;;;18.00;28.80;;;;;;8363152;28;19963;-44
2023/02/28 16:37:37;;;;;;;;;;;18.00;28.70;;;;;;8362736;28;20053;-45
2023/02/28 16:41:41;;;;;;;;;;;18.10;28.70;;;;;;8363448;28;19917;-46
2023/02/28 16:45:42;;;;;;;;;;;18.20;28.70;;;;;;8361768;28;19940;-43
2023/02/28 16:49:43;;;;;;;;;;;18.20;28.60;;;;;;8362435;28;19916;-44
2023/02/28 16:53:44;;;;;;;;;;;18.40;28.60;;;;;;8362243;28;20378;-45
2023/02/28 16:57:47;;;;;;;;;;;18.40;28.60;;;;;;8361899;28;19924;-45
2023/02/28 17:01:48;;;;;;;;;;;18.50;28.60;;;;;;8363278;28;19974;-43
2023/02/28 17:05:49;;;;;;;;;;;18.50;28.60;;;;;;8362185;28;19924;-46
2023/02/28 17:09:49;;;;;;;;;;;18.60;29.00;;;;;;8360065;28;19955;-44
2023/02/28 17:13:50;;;;;;;;;;;18.60;28.50;;;;;;8341935;28;20409;-45
2023/02/28 17:17:51;;;;;;;;;;;18.60;28.50;;;;;;8368510;28;20301;-44
2023/02/28 17:21:51;;;;;;;;;;;18.70;28.60;;;;;;8368451;28;20393;-44
2023/02/28 17:25:54;;;;;;;;;;;18.70;28.50;;;;;;8368619;28;20000;-44
2023/02/28 17:29:55;;;;;;;;;;;18.80;28.50;;;;;;8368448;28;19917;-44
2023/02/28 17:33:55;;;;;;;;;;;18.80;28.50;;;;;;8367914;28;20365;-45
2023/02/28 17:37:56;;;;;;;;;;;18.80;28.40;;;;;;8368413;28;20274;-44
2023/02/28 17:41:56;;;;;;;;;;;18.90;28.50;;;;;;8368078;28;19995;-44
2023/02/28 17:45:58;;;;;;;;;;;18.90;28.50;;;;;;8367449;28;19955;-44
2023/02/28 17:49:58;;;;;;;;;;;18.90;28.50;;;;;;8368518;28;19916;-44
2023/02/28 17:53:59;;;;;;;;;;;18.90;28.90;;;;;;8367583;28;20347;-44
2023/02/28 17:58:00;;;;;;;;;;;18.90;28.40;;;;;;8367202;28;20393;-44
2023/02/28 18:02:00;;;;;;;;;;;19.00;28.50;;;;;;8367524;28;19921;-44
2023/02/28 18:06:01;;;;;;;;;;;19.00;28.50;;;;;;8367626;28;20020;-45
2023/02/28 18:10:03;;;;;;;;;;;19.00;28.50;;;;;;8366561;28;19948;-45
2023/02/28 18:14:03;;;;;;;;;;;19.10;28.50;;;;;;8367595;28;19916;-44
2023/02/28 18:18:05;;;;;;;;;;;19.10;28.40;;;;;;8366730;28;20436;-44
2023/02/28 18:22:07;;;;;;;;;;;19.10;28.40;;;;;;8366348;28;21459;-44
2023/02/28 18:26:07;;;;;;;;;;;19.10;28.40;;;;;;8366470;28;19920;-45
2023/02/28 18:30:08;;;;;;;;;;;19.20;28.40;;;;;;8366419;28;19913;-45
2023/02/28 18:34:09;;;;;;;;;;;19.20;28.40;;;;;;8365718;28;20328;-45
2023/02/28 18:38:13;;;;;;;;;;;19.20;28.40;;;;;;8366286;28;20293;-44
2023/02/28 18:42:14;;;;;;;;;;;19.30;28.40;;;;;;8366757;28;20322;-45
2023/02/28 18:46:16;;;;;;;;;;;19.30;28.40;;;;;;8365640;28;19917;-43
2023/02/28 18:50:16;;;;;;;;;;;19.30;28.50;;;;;;8365844;28;19917;-45
2023/02/28 18:54:17;;;;;;;;;;;19.30;28.40;;;;;;8365920;28;19913;-44
2023/02/28 18:58:17;;;;;;;;;;;19.30;28.40;;;;;;8365159;28;19951;-45
2023/02/28 19:02:18;;;;;;;;;;;19.30;28.40;;;;;;8366378;28;20003;-44
2023/02/28 19:06:19;;;;;;;;;;;19.30;28.30;;;;;;8365642;28;19952;-45
2023/02/28 19:10:19;;;;;;;;;;;19.30;28.30;;;;;;8364813;28;19917;-44
2023/02/28 19:14:20;;;;;;;;;;;19.30;28.30;;;;;;8365382;28;19920;-42
2023/02/28 19:18:21;;;;;;;;;;;19.30;28.30;;;;;;8365297;28;19928;-43
2023/02/28 19:22:21;;;;;;;;;;;19.40;28.30;;;;;;8364536;28;19964;-44
2023/02/28 19:26:23;;;;;;;;;;;19.40;28.30;;;;;;8347035;28;19939;-44
2023/02/28 19:30:24;;;;;;;;;;;19.40;28.30;;;;;;8364987;28;20271;-44
2023/02/28 19:34:25;;;;;;;;;;;19.40;28.30;;;;;;8364372;28;19924;-45
2023/02/28 19:38:25;;;;;;;;;;;19.40;28.40;;;;;;8364240;28;19925;-45
2023/02/28 19:42:31;;;;;;;;;;;19.40;28.30;;;;;;8364730;28;19917;-43
2023/02/28 19:46:32;;;;;;;;;;;19.40;28.30;;;;;;8364159;28;20262;-45
2023/02/28 19:50:32;;;;;;;;;;;19.40;28.30;;;;;;8364196;28;19917;-45
2023/02/28 19:54:33;;;;;;;;;;;19.40;28.20;;;;;;8364244;28;19947;-44
2023/02/28 19:58:34;;;;;;;;;;;19.50;28.30;;;;;;8363725;28;19925;-43
2023/02/28 20:02:35;;;;;;;;;;;19.50;28.20;;;;;;8362336;28;19961;-45
2023/02/28 20:06:36;;;;;;;;;;;19.40;28.30;;;;;;8362648;28;19996;-44
2023/02/28 20:10:37;;;;;;;;;;;19.50;28.30;;;;;;8360585;28;19921;-44
2023/02/28 20:14:38;;;;;;;;;;;19.50;28.20;;;;;;8362420;28;19923;-44
2023/02/28 20:18:38;;;;;;;;;;;19.50;28.30;;;;;;8362317;28;20019;-44
2023/02/28 20:22:39;;;;;;;;;;;19.50;28.20;;;;;;8361601;28;20267;-45
2023/02/28 20:26:39;;;;;;;;;;;19.50;28.20;;;;;;8361948;28;19917;-44
2023/02/28 20:30:41;;;;;;;;;;;19.50;28.20;;;;;;8361847;28;20004;-44
2023/02/28 20:34:41;;;;;;;;;;;19.50;28.20;;;;;;8361379;28;19917;-44
2023/02/28 20:38:42;;;;;;;;;;;19.50;28.20;;;;;;8362129;28;19963;-44
2023/02/28 20:42:42;;;;;;;;;;;19.50;28.20;;;;;;8361304;28;19995;-43
2023/02/28 20:46:43;;;;;;;;;;;19.50;28.10;;;;;;8361607;28;19923;-45
2023/02/28 20:50:53;;;;;;;;;;;19.50;28.10;;;;;;8360497;28;19921;-44
2023/02/28 20:54:53;;;;;;;;;;;19.60;28.20;;;;;;8360893;28;20074;-43
2023/02/28 20:58:55;;;;;;;;;;;19.50;28.20;;;;;;8300684;28;1728563;-44
2023/02/28 21:02:55;;;;;;;;;;;19.50;28.30;;;;;;8362946;28;19953;-44
2023/02/28 21:06:56;;;;;;;;;;;19.60;28.20;;;;;;8362170;28;20381;-45
2023/02/28 21:10:56;;;;;;;;;;;19.50;28.20;;;;;;8362599;28;19939;-45
2023/02/28 21:14:56;;;;;;;;;;;19.60;28.20;;;;;;8362640;28;19944;-45
2023/02/28 21:19:02;;;;;;;;;;;19.60;28.20;;;;;;8362139;28;19921;-43
2023/02/28 21:23:03;;;;;;;;;;;19.60;28.20;;;;;;8362319;28;19971;-44
2023/02/28 21:27:03;;;;;;;;;;;19.60;28.10;;;;;;8362360;28;20285;-44
2023/02/28 21:31:05;;;;;;;;;;;19.60;28.10;;;;;;8361558;28;19943;-44
2023/02/28 21:35:06;;;;;;;;;;;19.60;28.10;;;;;;8362088;28;19977;-42
2023/02/28 21:39:08;;;;;;;;;;;19.50;28.00;;;;;;8361830;28;19924;-43
2023/02/28 21:43:08;;;;;;;;;;;19.50;28.00;;;;;;8361537;28;20000;-42
2023/02/28 21:47:09;;;;;;;;;;;19.50;28.00;;;;;;8361873;28;20408;-43
2023/02/28 21:51:13;;;;;;;;;;;19.40;28.00;;;;;;8362058;28;20397;-42
2023/02/28 21:55:13;;;;;;;;;;;19.40;28.10;;;;;;8361520;28;20373;-44
2023/02/28 21:59:14;;;;;;;;;;;19.30;28.10;;;;;;8362955;28;19929;-43
2023/02/28 22:03:14;;;;;;;;;;;19.30;28.20;;;;;;8367481;28;19917;-44
2023/02/28 22:07:16;;;;;;;;;;;19.30;28.10;;;;;;8366999;28;19916;-43
2023/02/28 22:11:17;;;;;;;;;;;19.30;28.10;;;;;;8367442;28;20366;-44
2023/02/28 22:15:18;;;;;;;;;;;19.30;28.10;;;;;;8367416;28;20019;-44
2023/02/28 22:19:19;;;;;;;;;;;19.30;28.10;;;;;;8366945;28;19921;-43
2023/02/28 22:23:19;;;;;;;;;;;19.20;28.10;;;;;;8367235;28;20358;-45
2023/02/28 22:27:19;;;;;;;;;;;19.20;28.10;;;;;;8367056;28;19924;-44
2023/02/28 22:31:22;;;;;;;;;;;19.10;28.10;;;;;;8366329;28;19951;-44
2023/02/28 22:35:22;;;;;;;;;;;19.10;28.20;;;;;;8366456;28;19916;-44
2023/02/28 22:39:23;;;;;;;;;;;19.10;28.20;;;;;;8366888;28;19925;-43
2023/02/28 22:43:23;;;;;;;;;;;19.00;28.20;;;;;;8365777;28;20040;-43
2023/02/28 22:47:25;;;;;;;;;;;19.00;28.30;;;;;;8366052;28;19917;-44
2023/02/28 22:51:26;;;;;;;;;;;18.90;28.30;;;;;;8365930;28;19948;-43
2023/02/28 22:55:27;;;;;;;;;;;18.90;28.40;;;;;;8365416;28;19941;-44
2023/02/28 22:59:27;;;;;;;;;;;18.90;28.40;;;;;;8367007;28;19994;-43
2023/02/28 23:03:27;;;;;;;;;;;18.80;28.40;;;;;;8361536;28;19920;-42
2023/02/28 23:07:28;;;;;;;;;;;18.80;28.50;;;;;;8353483;28;20398;-42
2023/02/28 23:11:33;;;;;;;;;;;18.70;28.50;;;;;;8364515;28;19924;-42
2023/02/28 23:15:33;;;;;;;;;;;18.70;28.50;;;;;;8365829;28;19924;-42
2023/02/28 23:19:34;;;;;;;;;;;18.60;28.50;;;;;;8364683;28;19933;-43
2023/02/28 23:23:34;;;;;;;;;;;18.60;28.50;;;;;;8365051;28;19921;-43
2023/02/28 23:27:34;;;;;;;;;;;18.60;28.60;;;;;;8364879;28;20283;-42
2023/02/28 23:31:35;;;;;;;;;;;18.60;28.60;;;;;;8364217;28;20275;-43